Time;durP1;ratioP1;P1;durP2;ratioP2;P2;SDS_P1;SDS_P2;PMS_P1;PMS_P2;Temp;Humidity;BMP_temperature;BMP_pressure;BME280_temperature;BME280_humidity;BME280_pressure;Samples;Min_cycle;Max_cycle;Signal;HPM_P1;HPM_P2
2021/06/07 00:01:34;;;;;;;12.33;11.00;;;;;;;;;;740903;187;913746;-73
2021/06/07 00:04:00;;;;;;;13.80;11.20;;;;;;;;;;743346;187;920435;-73
2021/06/07 00:06:26;;;;;;;18.23;11.10;;;;;;;;;;743375;187;920094;-72
2021/06/07 00:08:51;;;;;;;14.07;11.60;;;;;;;;;;748573;187;1149870;-73
2021/06/07 00:11:17;;;;;;;15.33;12.77;;;;;;;;;;745168;187;817879;-73
2021/06/07 00:13:44;;;;;;;15.77;14.10;;;;;;;;;;741208;187;920345;-73
2021/06/07 00:16:09;;;;;;;19.53;13.63;;;;;;;;;;745135;187;914917;-73
2021/06/07 00:18:35;;;;;;;16.10;12.73;;;;;;;;;;740299;187;914958;-73
2021/06/07 00:21:01;;;;;;;17.23;14.60;;;;;;;;;;738128;187;914093;-72
2021/06/07 00:23:27;;;;;;;18.07;12.97;;;;;;;;;;744596;187;894436;-73
2021/06/07 00:25:53;;;;;;;15.88;14.18;;;;;;;;;;745709;184;815240;-73
2021/06/07 00:28:19;;;;;;;21.77;16.80;;;;;;;;;;741934;186;941540;-73
2021/06/07 00:30:45;;;;;;;18.17;16.27;;;;;;;;;;742944;186;812553;-73
2021/06/07 00:33:11;;;;;;;18.55;15.02;;;;;;;;;;748826;186;916131;-72
2021/06/07 00:35:36;;;;;;;19.67;13.30;;;;;;;;;;745087;186;807909;-72
2021/06/07 00:38:02;;;;;;;17.37;14.40;;;;;;;;;;742430;186;918761;-73
2021/06/07 00:40:29;;;;;;;17.53;13.97;;;;;;;;;;752344;186;918986;-73
2021/06/07 00:42:54;;;;;;;17.50;15.50;;;;;;;;;;744681;186;918974;-72
2021/06/07 00:45:20;;;;;;;22.00;16.25;;;;;;;;;;738140;186;1122253;-73
2021/06/07 00:47:46;;;;;;;20.47;15.47;;;;;;;;;;747956;186;919266;-73
2021/06/07 00:50:12;;;;;;;19.70;16.50;;;;;;;;;;750077;184;919325;-73
2021/06/07 00:52:59;;;;;;;21.73;15.27;;;;;;;;;;742903;186;816626;-73
2021/06/07 00:55:04;;;;;;;18.80;15.47;;;;;;;;;;745611;186;919304;-73
2021/06/07 00:57:30;;;;;;;18.43;13.43;;;;;;;;;;748358;186;1022023;-73
2021/06/07 00:59:56;;;;;;;25.07;14.10;;;;;;;;;;741634;186;914847;-73
2021/06/07 01:02:22;;;;;;;16.07;14.03;;;;;;;;;;744882;187;919129;-72
2021/06/07 01:04:48;;;;;;;19.30;15.57;;;;;;;;;;748502;187;921067;-72
2021/06/07 01:07:13;;;;;;;21.47;16.97;;;;;;;;;;737539;187;918248;-73
2021/06/07 01:09:39;;;;;;;21.63;15.33;;;;;;;;;;742497;187;902157;-73
2021/06/07 01:12:05;;;;;;;23.90;15.67;;;;;;;;;;747321;187;917796;-73
2021/06/07 01:14:31;;;;;;;18.00;15.63;;;;;;;;;;744445;187;919028;-73
2021/06/07 01:16:57;;;;;;;17.50;15.77;;;;;;;;;;742108;187;918853;-72
2021/06/07 01:19:23;;;;;;;18.80;15.83;;;;;;;;;;739079;187;919118;-73
2021/06/07 01:21:49;;;;;;;20.50;16.40;;;;;;;;;;742580;187;893002;-73
2021/06/07 01:24:15;;;;;;;20.08;16.08;;;;;;;;;;745584;187;811586;-73
2021/06/07 01:26:40;;;;;;;25.30;17.20;;;;;;;;;;739707;187;941272;-73
2021/06/07 01:29:06;;;;;;;21.92;16.60;;;;;;;;;;742316;187;916158;-73
2021/06/07 01:31:32;;;;;;;28.53;17.37;;;;;;;;;;742910;187;812773;-73
2021/06/07 01:33:58;;;;;;;20.50;17.57;;;;;;;;;;739681;187;915149;-74
2021/06/07 01:36:24;;;;;;;19.10;16.10;;;;;;;;;;745641;186;914816;-73
2021/06/07 01:38:50;;;;;;;26.00;17.50;;;;;;;;;;746625;186;816776;-74
2021/06/07 01:41:16;;;;;;;21.20;18.13;;;;;;;;;;745569;186;917558;-73
2021/06/07 01:43:41;;;;;;;26.70;17.00;;;;;;;;;;751526;186;918980;-74
2021/06/07 01:46:07;;;;;;;22.43;18.87;;;;;;;;;;739969;186;917587;-74
2021/06/07 01:48:33;;;;;;;18.73;16.77;;;;;;;;;;742964;186;918727;-74
2021/06/07 01:50:59;;;;;;;20.00;16.60;;;;;;;;;;749695;186;1122580;-74
2021/06/07 01:53:25;;;;;;;19.07;16.93;;;;;;;;;;744415;186;916024;-74
2021/06/07 01:55:51;;;;;;;20.07;16.27;;;;;;;;;;739033;186;919025;-74
2021/06/07 01:58:17;;;;;;;21.60;17.12;;;;;;;;;;739083;186;918800;-73
2021/06/07 02:00:46;;;;;;;20.63;15.80;;;;;;;;;;745014;186;814361;-74
2021/06/07 02:03:14;;;;;;;16.20;13.97;;;;;;;;;;740810;186;914447;-75
2021/06/07 02:05:39;;;;;;;22.90;15.83;;;;;;;;;;741808;186;918114;-75
2021/06/07 02:08:05;;;;;;;18.40;14.67;;;;;;;;;;741829;186;918774;-75
2021/06/07 02:10:31;;;;;;;17.57;15.77;;;;;;;;;;746440;186;882067;-75
2021/06/07 02:12:58;;;;;;;17.77;14.68;;;;;;;;;;739863;187;919168;-75
2021/06/07 02:15:24;;;;;;;19.27;14.15;;;;;;;;;;738786;187;915400;-75
2021/06/07 02:17:50;;;;;;;17.40;14.27;;;;;;;;;;742010;187;1019862;-75
2021/06/07 02:20:16;;;;;;;21.23;16.10;;;;;;;;;;739202;187;930082;-74
2021/06/07 02:22:41;;;;;;;21.77;16.70;;;;;;;;;;744200;187;1021093;-75
2021/06/07 02:25:08;;;;;;;17.20;14.63;;;;;;;;;;748157;187;884884;-74
2021/06/07 02:27:34;;;;;;;18.30;15.90;;;;;;;;;;740960;187;918458;-75
2021/06/07 02:30:00;;;;;;;18.57;15.97;;;;;;;;;;747558;187;918772;-75
2021/06/07 02:32:25;;;;;;;19.40;15.33;;;;;;;;;;747256;187;817026;-76
2021/06/07 02:34:51;;;;;;;19.10;16.27;;;;;;;;;;751169;184;815170;-75
2021/06/07 02:37:17;;;;;;;18.73;15.77;;;;;;;;;;740710;187;919296;-75
2021/06/07 02:39:43;;;;;;;21.13;16.27;;;;;;;;;;742075;187;919600;-75
2021/06/07 02:42:09;;;;;;;18.13;16.20;;;;;;;;;;744511;187;918340;-75
2021/06/07 02:44:35;;;;;;;17.80;15.00;;;;;;;;;;737744;187;918157;-75
2021/06/07 02:47:01;;;;;;;16.33;14.63;;;;;;;;;;743736;187;918562;-74
2021/06/07 02:49:26;;;;;;;16.60;12.40;;;;;;;;;;754593;186;917839;-75
2021/06/07 02:51:52;;;;;;;16.03;12.07;;;;;;;;;;745910;186;910432;-75
2021/06/07 02:54:18;;;;;;;17.80;13.50;;;;;;;;;;742961;186;918176;-74
2021/06/07 02:56:44;;;;;;;18.75;13.68;;;;;;;;;;743050;186;898777;-75
2021/06/07 02:59:10;;;;;;;22.13;14.30;;;;;;;;;;742995;186;919678;-75
2021/06/07 03:01:36;;;;;;;20.00;15.57;;;;;;;;;;740506;186;918451;-75
2021/06/07 03:04:01;;;;;;;18.33;16.03;;;;;;;;;;738834;186;917557;-75
2021/06/07 03:06:27;;;;;;;20.80;17.10;;;;;;;;;;743608;186;1084331;-75
2021/06/07 03:08:53;;;;;;;18.50;15.37;;;;;;;;;;739862;187;899571;-74
2021/06/07 03:11:19;;;;;;;18.17;15.33;;;;;;;;;;739205;187;831594;-75
2021/06/07 03:13:45;;;;;;;17.65;13.90;;;;;;;;;;748810;186;863820;-75
2021/06/07 03:16:11;;;;;;;15.63;13.63;;;;;;;;;;747492;186;814679;-74
2021/06/07 03:18:36;;;;;;;15.00;13.30;;;;;;;;;;742554;186;918081;-74
2021/06/07 03:21:02;;;;;;;19.60;15.27;;;;;;;;;;744682;188;915411;-75
2021/06/07 03:23:28;;;;;;;25.20;17.47;;;;;;;;;;739839;186;922836;-75
2021/06/07 03:25:54;;;;;;;26.90;22.10;;;;;;;;;;742686;187;917552;-75
2021/06/07 03:28:20;;;;;;;27.27;20.07;;;;;;;;;;744790;187;919112;-75
2021/06/07 03:30:46;;;;;;;30.77;23.27;;;;;;;;;;747960;184;919300;-74
2021/06/07 03:33:12;;;;;;;33.08;23.48;;;;;;;;;;739677;187;918733;-74
2021/06/07 03:35:37;;;;;;;29.17;23.73;;;;;;;;;;742553;187;913093;-75
2021/06/07 03:38:03;;;;;;;31.37;25.47;;;;;;;;;;747567;187;917514;-75
2021/06/07 03:40:29;;;;;;;34.93;24.93;;;;;;;;;;741019;187;917612;-75
2021/06/07 03:42:55;;;;;;;30.00;23.00;;;;;;;;;;743133;187;912069;-74
2021/06/07 03:45:21;;;;;;;30.17;24.50;;;;;;;;;;750522;187;816317;-75
2021/06/07 03:47:47;;;;;;;28.60;23.47;;;;;;;;;;738461;187;917533;-75
2021/06/07 03:50:13;;;;;;;30.83;24.57;;;;;;;;;;737822;187;914792;-75
2021/06/07 03:52:38;;;;;;;32.60;23.13;;;;;;;;;;745084;187;910481;-74
2021/06/07 03:55:05;;;;;;;34.07;24.33;;;;;;;;;;741048;187;914127;-75
2021/06/07 03:57:30;;;;;;;29.80;23.13;;;;;;;;;;743772;187;914785;-75
2021/06/07 03:59:56;;;;;;;32.67;22.47;;;;;;;;;;743094;186;918090;-75
2021/06/07 04:02:23;;;;;;;30.73;23.07;;;;;;;;;;749611;186;914108;-74
2021/06/07 04:04:48;;;;;;;25.50;21.50;;;;;;;;;;745926;186;810694;-74
2021/06/07 04:07:14;;;;;;;23.87;20.63;;;;;;;;;;743136;186;917988;-74
2021/06/07 04:09:41;;;;;;;23.03;20.60;;;;;;;;;;748790;186;914334;-75
2021/06/07 04:12:06;;;;;;;25.20;20.80;;;;;;;;;;743840;186;815668;-74
2021/06/07 04:14:32;;;;;;;27.03;20.07;;;;;;;;;;741538;186;914466;-75
2021/06/07 04:16:57;;;;;;;23.17;20.67;;;;;;;;;;742035;187;812926;-75
2021/06/07 04:19:23;;;;;;;42.23;22.10;;;;;;;;;;738493;186;1364160;-75
2021/06/07 04:21:49;;;;;;;24.97;18.30;;;;;;;;;;747010;186;624416;-75
2021/06/07 04:24:15;;;;;;;26.87;19.20;;;;;;;;;;746840;186;913820;-75
2021/06/07 04:26:41;;;;;;;25.27;19.40;;;;;;;;;;737478;186;833285;-75
2021/06/07 04:29:07;;;;;;;26.40;18.40;;;;;;;;;;741659;186;915320;-75
2021/06/07 04:31:33;;;;;;;22.73;18.03;;;;;;;;;;744221;186;915774;-75
2021/06/07 04:33:58;;;;;;;23.10;18.60;;;;;;;;;;752743;186;915448;-75
2021/06/07 04:36:24;;;;;;;22.63;17.87;;;;;;;;;;741616;186;899855;-75
2021/06/07 04:38:50;;;;;;;18.73;16.57;;;;;;;;;;738739;187;920980;-75
2021/06/07 04:41:16;;;;;;;23.37;18.10;;;;;;;;;;744816;187;815724;-75
2021/06/07 04:43:42;;;;;;;17.73;15.60;;;;;;;;;;743335;187;918339;-75
2021/06/07 04:46:08;;;;;;;19.67;17.23;;;;;;;;;;743060;187;981012;-75
2021/06/07 04:48:33;;;;;;;19.57;16.60;;;;;;;;;;745910;187;816546;-76
2021/06/07 04:50:59;;;;;;;20.73;17.53;;;;;;;;;;743047;187;919103;-75
2021/06/07 04:53:25;;;;;;;21.80;17.97;;;;;;;;;;741657;187;927290;-75
2021/06/07 04:55:51;;;;;;;17.30;15.57;;;;;;;;;;740568;187;919174;-75
2021/06/07 04:58:17;;;;;;;19.67;16.10;;;;;;;;;;744557;187;937681;-76
2021/06/07 05:00:43;;;;;;;20.50;17.37;;;;;;;;;;739623;187;1019156;-75
2021/06/07 05:03:09;;;;;;;22.33;16.83;;;;;;;;;;743807;187;938692;-75
2021/06/07 05:05:35;;;;;;;20.73;16.37;;;;;;;;;;747348;187;713084;-75
2021/06/07 05:08:01;;;;;;;18.50;14.40;;;;;;;;;;742855;187;815427;-76
2021/06/07 05:10:27;;;;;;;21.00;15.03;;;;;;;;;;747723;184;670479;-76
2021/06/07 05:12:53;;;;;;;15.33;13.07;;;;;;;;;;745565;186;738001;-76
2021/06/07 05:15:19;;;;;;;19.10;14.63;;;;;;;;;;743049;186;871656;-76
2021/06/07 05:17:45;;;;;;;15.70;13.30;;;;;;;;;;743814;186;625599;-76
2021/06/07 05:20:12;;;;;;;15.27;13.67;;;;;;;;;;746126;186;630361;-76
2021/06/07 05:22:37;;;;;;;20.80;14.27;;;;;;;;;;747926;186;712833;-76
2021/06/07 05:25:04;;;;;;;12.77;11.53;;;;;;;;;;744139;186;814311;-75
2021/06/07 05:27:29;;;;;;;15.23;13.43;;;;;;;;;;745307;186;676880;-77
2021/06/07 05:29:55;;;;;;;14.60;13.20;;;;;;;;;;750652;186;622936;-75
2021/06/07 05:32:21;;;;;;;18.30;13.63;;;;;;;;;;746693;186;624530;-76
2021/06/07 05:34:47;;;;;;;16.63;14.00;;;;;;;;;;742672;186;921743;-76
2021/06/07 05:37:13;;;;;;;15.67;13.17;;;;;;;;;;746240;186;919543;-75
2021/06/07 05:39:39;;;;;;;18.60;13.50;;;;;;;;;;743620;186;712324;-76
2021/06/07 05:42:05;;;;;;;16.40;13.90;;;;;;;;;;742538;186;811992;-75
2021/06/07 05:44:31;;;;;;;17.70;12.70;;;;;;;;;;744970;186;626358;-77
2021/06/07 05:46:57;;;;;;;27.67;13.87;;;;;;;;;;743323;187;620274;-76
2021/06/07 05:49:23;;;;;;;17.97;12.80;;;;;;;;;;741464;187;912264;-76
2021/06/07 05:51:48;;;;;;;15.07;13.13;;;;;;;;;;747195;187;641785;-77
2021/06/07 05:54:14;;;;;;;16.47;12.80;;;;;;;;;;748160;187;817496;-76
2021/06/07 05:56:40;;;;;;;16.90;13.80;;;;;;;;;;747547;187;629597;-77
2021/06/07 05:59:06;;;;;;;13.30;11.80;;;;;;;;;;746485;187;916816;-74
2021/06/07 06:01:32;;;;;;;15.13;11.97;;;;;;;;;;749119;187;918479;-75
2021/06/07 06:03:58;;;;;;;14.50;12.00;;;;;;;;;;743901;187;918294;-76
2021/06/07 06:06:24;;;;;;;14.37;12.87;;;;;;;;;;741408;187;812278;-75
2021/06/07 06:08:51;;;;;;;13.07;11.43;;;;;;;;;;747138;187;813994;-76
2021/06/07 06:11:15;;;;;;;14.23;12.40;;;;;;;;;;746194;187;1240501;-76
2021/06/07 06:13:41;;;;;;;24.77;11.10;;;;;;;;;;742600;187;921508;-77
2021/06/07 06:16:07;;;;;;;14.93;11.10;;;;;;;;;;742555;187;918574;-76
2021/06/07 06:18:35;;;;;;;14.00;10.90;;;;;;;;;;751750;187;921363;-76
2021/06/07 06:20:59;;;;;;;11.75;8.95;;;;;;;;;;741401;187;917899;-76
2021/06/07 06:23:25;;;;;;;12.37;9.23;;;;;;;;;;740873;186;918564;-76
2021/06/07 06:25:50;;;;;;;13.07;10.20;;;;;;;;;;743781;186;918934;-75
2021/06/07 06:28:16;;;;;;;11.70;8.93;;;;;;;;;;742242;186;917230;-76
2021/06/07 06:30:42;;;;;;;10.30;9.15;;;;;;;;;;742026;186;919997;-76
2021/06/07 06:33:08;;;;;;;10.97;8.53;;;;;;;;;;744675;186;918860;-76
2021/06/07 06:35:34;;;;;;;12.93;10.10;;;;;;;;;;741862;186;852128;-76
2021/06/07 06:38:00;;;;;;;14.63;10.30;;;;;;;;;;743599;186;918919;-76
2021/06/07 06:40:25;;;;;;;14.93;8.60;;;;;;;;;;742972;187;1123535;-75
2021/06/07 06:42:51;;;;;;;13.20;9.37;;;;;;;;;;740195;186;918675;-76
2021/06/07 06:45:17;;;;;;;11.00;8.03;;;;;;;;;;743298;186;918655;-76
2021/06/07 06:47:43;;;;;;;10.60;8.30;;;;;;;;;;740526;186;1396781;-76
2021/06/07 06:50:09;;;;;;;11.07;8.43;;;;;;;;;;747059;187;918191;-76
2021/06/07 06:52:35;;;;;;;13.00;9.73;;;;;;;;;;741520;186;913456;-77
2021/06/07 06:55:01;;;;;;;10.47;8.70;;;;;;;;;;739933;186;816451;-75
2021/06/07 06:57:27;;;;;;;13.03;10.70;;;;;;;;;;746861;187;918475;-77
2021/06/07 06:59:53;;;;;;;9.70;8.13;;;;;;;;;;740155;187;917482;-76
2021/06/07 07:02:18;;;;;;;13.00;9.87;;;;;;;;;;741163;187;864409;-76
2021/06/07 07:04:44;;;;;;;13.77;8.10;;;;;;;;;;743505;187;816565;-76
2021/06/07 07:07:10;;;;;;;13.87;9.50;;;;;;;;;;741772;187;818654;-77
2021/06/07 07:09:37;;;;;;;13.90;9.40;;;;;;;;;;744415;187;919899;-77
2021/06/07 07:12:02;;;;;;;14.60;9.57;;;;;;;;;;737676;188;935216;-77
2021/06/07 07:14:28;;;;;;;24.20;10.00;;;;;;;;;;748190;187;815517;-77
2021/06/07 07:16:54;;;;;;;12.50;9.23;;;;;;;;;;740477;187;1021660;-77
2021/06/07 07:19:20;;;;;;;9.90;8.63;;;;;;;;;;740125;187;931272;-77
2021/06/07 07:21:45;;;;;;;10.63;8.77;;;;;;;;;;748560;187;888749;-77
2021/06/07 07:24:11;;;;;;;10.50;8.50;;;;;;;;;;742748;187;917846;-76
2021/06/07 07:26:37;;;;;;;8.40;6.85;;;;;;;;;;739267;187;826857;-77
2021/06/07 07:29:03;;;;;;;16.13;7.97;;;;;;;;;;748071;187;848787;-77
2021/06/07 07:31:29;;;;;;;13.87;6.70;;;;;;;;;;743167;187;918592;-76
2021/06/07 07:33:55;;;;;;;16.57;6.67;;;;;;;;;;742170;187;912402;-76
2021/06/07 07:36:21;;;;;;;7.70;6.90;;;;;;;;;;749984;186;933601;-77
2021/06/07 07:38:47;;;;;;;11.87;7.37;;;;;;;;;;745609;186;918943;-76
2021/06/07 07:41:13;;;;;;;7.37;6.23;;;;;;;;;;742103;186;1046846;-77
2021/06/07 07:43:38;;;;;;;10.83;7.40;;;;;;;;;;745770;186;915171;-77
2021/06/07 07:46:04;;;;;;;10.83;7.37;;;;;;;;;;750228;186;915775;-77
2021/06/07 07:48:30;;;;;;;11.33;7.27;;;;;;;;;;740450;186;916685;-77
2021/06/07 07:50:56;;;;;;;11.32;6.93;;;;;;;;;;739677;186;1022635;-79
2021/06/07 07:53:24;;;;;;;12.30;8.60;;;;;;;;;;747470;187;914412;-77
2021/06/07 07:55:50;;;;;;;9.53;7.60;;;;;;;;;;745211;186;918377;-77
2021/06/07 07:58:14;;;;;;;13.67;6.60;;;;;;;;;;742640;186;888856;-77
2021/06/07 08:00:40;;;;;;;8.40;6.47;;;;;;;;;;747586;186;741725;-77
2021/06/07 08:03:06;;;;;;;7.93;6.50;;;;;;;;;;742123;186;1014408;-77
2021/06/07 08:05:32;;;;;;;7.90;6.05;;;;;;;;;;741259;186;971007;-77
2021/06/07 08:07:58;;;;;;;10.10;6.87;;;;;;;;;;740557;186;919794;-78
2021/06/07 08:10:23;;;;;;;9.88;6.90;;;;;;;;;;744386;184;817010;-78
2021/06/07 08:12:49;;;;;;;9.63;5.47;;;;;;;;;;741449;187;1020508;-77
2021/06/07 08:15:15;;;;;;;8.73;5.78;;;;;;;;;;744918;187;927969;-77
2021/06/07 08:17:41;;;;;;;11.60;6.17;;;;;;;;;;754456;187;890057;-78
2021/06/07 08:20:07;;;;;;;8.60;6.50;;;;;;;;;;744474;187;910469;-78
2021/06/07 08:22:33;;;;;;;7.87;4.95;;;;;;;;;;742356;187;910223;-77
2021/06/07 08:25:00;;;;;;;6.67;5.30;;;;;;;;;;744932;187;1071793;-78
2021/06/07 08:27:25;;;;;;;7.57;5.37;;;;;;;;;;745353;187;907919;-79
2021/06/07 08:29:51;;;;;;;10.80;4.57;;;;;;;;;;742544;187;925407;-77
2021/06/07 08:32:16;;;;;;;8.50;4.57;;;;;;;;;;741783;187;842884;-78
2021/06/07 08:34:42;;;;;;;10.10;4.33;;;;;;;;;;743074;187;788929;-76
2021/06/07 08:37:08;;;;;;;7.10;4.77;;;;;;;;;;744352;187;910839;-76
2021/06/07 08:39:34;;;;;;;7.17;5.00;;;;;;;;;;744495;187;1003259;-78
2021/06/07 08:42:01;;;;;;;5.73;4.37;;;;;;;;;;750286;187;822066;-77
2021/06/07 08:44:27;;;;;;;6.60;4.33;;;;;;;;;;740980;187;914798;-78
2021/06/07 08:46:52;;;;;;;9.60;5.10;;;;;;;;;;743254;186;921842;-77
2021/06/07 08:49:17;;;;;;;7.80;4.63;;;;;;;;;;747723;186;926600;-77
2021/06/07 08:51:43;;;;;;;4.70;3.90;;;;;;;;;;744113;186;815224;-76
2021/06/07 08:54:09;;;;;;;5.27;4.00;;;;;;;;;;750036;186;874097;-75
2021/06/07 08:56:35;;;;;;;7.30;4.63;;;;;;;;;;749603;186;913817;-75
2021/06/07 08:59:01;;;;;;;5.20;4.00;;;;;;;;;;747219;186;1123983;-76
2021/06/07 09:01:27;;;;;;;5.50;4.23;;;;;;;;;;745960;186;930957;-78
2021/06/07 09:03:52;;;;;;;9.40;4.37;;;;;;;;;;744974;186;917245;-78
2021/06/07 09:06:22;;;;;;;8.90;4.43;;;;;;;;;;746653;186;618230;-79
2021/06/07 09:08:48;;;;;;;9.10;4.70;;;;;;;;;;748653;186;734726;-76
2021/06/07 09:11:14;;;;;;;5.10;4.37;;;;;;;;;;736580;186;1020818;-77
2021/06/07 09:13:40;;;;;;;7.95;3.70;;;;;;;;;;741099;187;1121211;-76
2021/06/07 09:16:05;;;;;;;8.63;4.13;;;;;;;;;;739192;186;918904;-78
2021/06/07 09:18:33;;;;;;;5.33;4.70;;;;;;;;;;740630;186;917657;-78
2021/06/07 09:21:06;;;;;;;6.60;4.00;;;;;;;;;;746701;186;918722;-78
2021/06/07 09:23:37;;;;;;;6.17;3.80;;;;;;;;;;743545;187;918302;-78
2021/06/07 09:26:03;;;;;;;5.77;4.00;;;;;;;;;;745082;187;1082486;-78
2021/06/07 09:28:29;;;;;;;16.20;4.10;;;;;;;;;;744698;187;854766;-77
2021/06/07 09:30:56;;;;;;;7.90;4.10;;;;;;;;;;746474;187;918050;-78
2021/06/07 09:33:34;;;;;;;5.30;3.70;;;;;;;;;;750922;187;815930;-77
2021/06/07 09:36:12;;;;;;;6.30;3.75;;;;;;;;;;744049;187;914810;-79
2021/06/07 09:38:44;;;;;;;9.73;4.57;;;;;;;;;;737395;187;918413;-79
2021/06/07 09:41:10;;;;;;;8.93;4.53;;;;;;;;;;742225;187;844711;-78
2021/06/07 09:43:42;;;;;;;5.73;4.30;;;;;;;;;;738934;187;914272;-77
2021/06/07 09:46:08;;;;;;;6.43;4.30;;;;;;;;;;744409;187;821771;-77
2021/06/07 09:48:33;;;;;;;4.50;3.60;;;;;;;;;;745483;187;847680;-79
2021/06/07 09:51:00;;;;;;;11.00;4.27;;;;;;;;;;743468;187;917892;-78
2021/06/07 09:53:31;;;;;;;6.87;5.00;;;;;;;;;;743802;187;1122115;-78
2021/06/07 09:56:04;;;;;;;6.07;4.03;;;;;;;;;;748123;187;915438;-77
2021/06/07 09:58:30;;;;;;;13.27;4.50;;;;;;;;;;747161;184;819238;-77
2021/06/07 10:00:56;;;;;;;8.03;4.93;;;;;;;;;;743063;186;915599;-78
2021/06/07 10:03:23;;;;;;;8.50;5.17;;;;;;;;;;734438;186;933758;-77
2021/06/07 10:05:49;;;;;;;9.90;5.30;;;;;;;;;;737511;186;918607;-77
2021/06/07 10:08:15;;;;;;;9.17;4.80;;;;;;;;;;736929;186;1030241;-78
2021/06/07 10:10:41;;;;;;;5.73;4.20;;;;;;;;;;745201;186;912548;-78
2021/06/07 10:13:07;;;;;;;5.57;4.67;;;;;;;;;;747143;186;917845;-78
2021/06/07 10:15:48;;;;;;;7.13;5.00;;;;;;;;;;741522;186;918655;-78
2021/06/07 10:18:14;;;;;;;5.40;4.60;;;;;;;;;;740364;187;918268;-78
2021/06/07 10:20:47;;;;;;;6.18;4.43;;;;;;;;;;740154;186;932474;-78
2021/06/07 10:23:12;;;;;;;6.27;4.60;;;;;;;;;;747211;186;900294;-79
2021/06/07 10:25:38;;;;;;;10.77;6.10;;;;;;;;;;737683;187;938536;-78
2021/06/07 10:28:04;;;;;;;7.73;4.73;;;;;;;;;;734003;186;1595298;-78
2021/06/07 10:30:29;;;;;;;6.40;5.17;;;;;;;;;;739229;186;916140;-78
2021/06/07 10:32:55;;;;;;;6.53;5.05;;;;;;;;;;747601;187;917740;-77
2021/06/07 10:35:27;;;;;;;10.70;6.03;;;;;;;;;;739485;187;919196;-78
2021/06/07 10:37:56;;;;;;;9.90;5.90;;;;;;;;;;743094;187;816847;-78
2021/06/07 10:40:23;;;;;;;8.83;5.70;;;;;;;;;;741080;187;922243;-77
2021/06/07 10:42:53;;;;;;;8.23;6.30;;;;;;;;;;745712;187;918032;-81
2021/06/07 10:45:22;;;;;;;8.03;5.93;;;;;;;;;;739398;187;917848;-78
2021/06/07 10:47:48;;;;;;;7.30;5.17;;;;;;;;;;742552;187;618505;-78
2021/06/07 10:50:14;;;;;;;10.90;5.90;;;;;;;;;;748581;187;813968;-78
2021/06/07 10:52:49;;;;;;;11.60;5.20;;;;;;;;;;743827;187;814559;-78
2021/06/07 10:55:10;;;;;;;15.37;5.93;;;;;;;;;;737531;187;919484;-76
2021/06/07 10:57:38;;;;;;;8.07;6.10;;;;;;;;;;742358;187;815381;-78
2021/06/07 11:00:12;;;;;;;10.00;5.90;;;;;;;;;;743688;187;1215841;-78
2021/06/07 11:02:38;;;;;;;12.00;5.67;;;;;;;;;;741987;187;918498;-79
2021/06/07 11:05:08;;;;;;;8.43;5.50;;;;;;;;;;752437;187;869856;-77
2021/06/07 11:07:34;;;;;;;10.40;5.90;;;;;;;;;;741516;187;891839;-79
2021/06/07 11:10:05;;;;;;;10.20;6.13;;;;;;;;;;752066;186;918379;-79
2021/06/07 11:12:31;;;;;;;11.93;5.60;;;;;;;;;;739824;186;816781;-78
2021/06/07 11:15:03;;;;;;;5.57;4.80;;;;;;;;;;741427;186;919239;-78
2021/06/07 11:17:29;;;;;;;7.87;5.10;;;;;;;;;;743743;186;1232042;-79
2021/06/07 11:19:57;;;;;;;9.73;6.13;;;;;;;;;;748464;186;810353;-79
2021/06/07 11:22:21;;;;;;;7.80;4.70;;;;;;;;;;743260;186;916013;-78
2021/06/07 11:24:47;;;;;;;10.13;4.47;;;;;;;;;;742580;186;837332;-78
2021/06/07 11:27:12;;;;;;;7.13;5.20;;;;;;;;;;749044;186;896025;-78
2021/06/07 11:29:38;;;;;;;10.30;4.68;;;;;;;;;;741836;186;917868;-78
2021/06/07 11:32:09;;;;;;;6.90;4.90;;;;;;;;;;741109;186;919541;-79
2021/06/07 11:34:45;;;;;;;5.68;4.53;;;;;;;;;;749221;186;858610;-77
2021/06/07 11:37:10;;;;;;;7.83;4.00;;;;;;;;;;742139;187;918960;-78
2021/06/07 11:39:40;;;;;;;5.67;4.47;;;;;;;;;;741988;186;917136;-78
2021/06/07 11:42:06;;;;;;;12.70;5.27;;;;;;;;;;743270;186;919965;-78
2021/06/07 11:44:37;;;;;;;7.40;4.65;;;;;;;;;;742779;187;1031172;-80
2021/06/07 11:47:03;;;;;;;7.47;5.17;;;;;;;;;;749253;187;932061;-79
2021/06/07 11:49:29;;;;;;;4.85;4.30;;;;;;;;;;742180;187;916051;-79
2021/06/07 11:52:01;;;;;;;8.13;4.20;;;;;;;;;;746219;187;918521;-77
2021/06/07 11:54:41;;;;;;;5.50;4.00;;;;;;;;;;740480;187;918080;-79
2021/06/07 11:57:07;;;;;;;12.83;4.70;;;;;;;;;;738091;187;918516;-79
2021/06/07 11:59:33;;;;;;;4.67;4.03;;;;;;;;;;743787;187;923422;-79
2021/06/07 12:02:01;;;;;;;6.30;4.50;;;;;;;;;;740696;187;917073;-78
2021/06/07 12:04:26;;;;;;;5.55;4.22;;;;;;;;;;740103;187;918914;-79
2021/06/07 12:06:58;;;;;;;5.73;4.17;;;;;;;;;;753742;187;911316;-77
2021/06/07 12:09:24;;;;;;;8.67;5.20;;;;;;;;;;742022;187;917699;-80
2021/06/07 12:11:50;;;;;;;6.67;4.07;;;;;;;;;;744261;187;816420;-78
2021/06/07 12:14:15;;;;;;;10.00;4.15;;;;;;;;;;737617;187;1017793;-76
2021/06/07 12:16:41;;;;;;;5.10;4.60;;;;;;;;;;745211;187;917687;-78
2021/06/07 12:19:10;;;;;;;5.47;4.23;;;;;;;;;;740771;187;918757;-78
2021/06/07 12:21:34;;;;;;;9.20;5.57;;;;;;;;;;745693;186;919727;-80
2021/06/07 12:24:05;;;;;;;10.02;4.55;;;;;;;;;;753411;186;915240;-78
2021/06/07 12:28:58;;;;;;;13.47;4.90;;;;;;;;;;744628;186;917395;-79
2021/06/07 12:31:24;;;;;;;6.73;5.00;;;;;;;;;;745782;186;915208;-80
2021/06/07 12:33:50;;;;;;;7.43;4.50;;;;;;;;;;746121;186;918836;-78
2021/06/07 12:36:16;;;;;;;9.47;5.00;;;;;;;;;;744968;186;746689;-78
2021/06/07 12:38:41;;;;;;;5.97;5.37;;;;;;;;;;745299;186;917804;-78
2021/06/07 12:41:07;;;;;;;8.53;4.80;;;;;;;;;;747669;186;905318;-78
2021/06/07 12:43:33;;;;;;;7.10;4.40;;;;;;;;;;745144;186;816028;-77
2021/06/07 12:46:00;;;;;;;7.80;4.63;;;;;;;;;;747397;186;895772;-79
2021/06/07 12:48:25;;;;;;;14.00;5.20;;;;;;;;;;749389;186;811129;-79
2021/06/07 12:51:06;;;;;;;6.93;5.00;;;;;;;;;;741448;186;1674832;-78
2021/06/07 12:53:32;;;;;;;6.80;4.50;;;;;;;;;;738033;186;914113;-78
2021/06/07 12:56:02;;;;;;;8.83;5.37;;;;;;;;;;743928;187;913270;-77
2021/06/07 12:58:26;;;;;;;8.03;5.60;;;;;;;;;;741073;187;915276;-77
2021/06/07 13:00:50;;;;;;;7.07;5.50;;;;;;;;;;751581;184;913489;-79
2021/06/07 13:03:24;;;;;;;6.70;6.00;;;;;;;;;;738586;187;978672;-78
2021/06/07 13:05:56;;;;;;;8.60;5.77;;;;;;;;;;738014;187;945883;-78
2021/06/07 13:08:22;;;;;;;11.10;6.13;;;;;;;;;;743586;187;921957;-78
2021/06/07 13:10:48;;;;;;;8.60;5.17;;;;;;;;;;745002;187;1119522;-77
2021/06/07 13:13:17;;;;;;;8.40;5.33;;;;;;;;;;737791;187;1196072;-77
2021/06/07 13:15:43;;;;;;;6.10;5.23;;;;;;;;;;745943;187;902599;-76
2021/06/07 13:18:09;;;;;;;6.00;5.33;;;;;;;;;;747438;187;922917;-78
2021/06/07 13:20:35;;;;;;;6.60;5.40;;;;;;;;;;741749;187;920339;-80
2021/06/07 13:23:01;;;;;;;9.00;5.70;;;;;;;;;;745323;187;819989;-79
2021/06/07 13:25:28;;;;;;;8.13;5.90;;;;;;;;;;743675;187;918309;-78
2021/06/07 13:27:54;;;;;;;6.97;4.60;;;;;;;;;;740863;187;917677;-78
2021/06/07 13:30:19;;;;;;;6.63;5.43;;;;;;;;;;746467;187;918436;-77
2021/06/07 13:32:47;;;;;;;6.30;5.23;;;;;;;;;;746613;184;944374;-77
2021/06/07 13:35:12;;;;;;;9.27;6.20;;;;;;;;;;747044;186;935962;-77
2021/06/07 13:37:47;;;;;;;11.93;5.10;;;;;;;;;;751921;186;915812;-78
2021/06/07 13:40:18;;;;;;;8.67;5.10;;;;;;;;;;744445;186;787061;-78
2021/06/07 13:42:46;;;;;;;8.40;5.00;;;;;;;;;;742278;186;808760;-80
2021/06/07 13:45:12;;;;;;;5.87;5.25;;;;;;;;;;751167;186;918447;-76
2021/06/07 13:47:39;;;;;;;6.40;5.47;;;;;;;;;;746338;186;714618;-79
2021/06/07 13:50:08;;;;;;;9.83;5.60;;;;;;;;;;746016;186;819201;-78
2021/06/07 13:52:36;;;;;;;7.63;5.40;;;;;;;;;;739113;187;918659;-78
2021/06/07 13:55:02;;;;;;;6.40;5.20;;;;;;;;;;746609;186;814421;-76
2021/06/07 13:57:27;;;;;;;9.23;4.90;;;;;;;;;;742708;186;918647;-78
2021/06/07 13:59:53;;;;;;;15.43;5.00;;;;;;;;;;740644;187;918722;-75
2021/06/07 14:02:19;;;;;;;7.30;4.40;;;;;;;;;;746454;186;918914;-79
2021/06/07 14:04:45;;;;;;;6.10;5.00;;;;;;;;;;740352;186;895946;-77
2021/06/07 14:07:11;;;;;;;7.10;5.30;;;;;;;;;;740944;187;933260;-78
2021/06/07 14:09:37;;;;;;;10.13;6.13;;;;;;;;;;747298;187;811126;-78
2021/06/07 14:12:02;;;;;;;8.60;5.87;;;;;;;;;;743570;187;918721;-77